Balkan, Minnesota
Current Conditions -  °F | °C
As of 10:12 AM on Wednesday 26 Nov 2014 (Local Time) from KHIB Reporting Station
Light Snow Light Snow  
Wind Chill:   Ceiling: 1600
Heat Index: 15°   Visibility: 4mi
Dew Point:   Wind: 13mph
Humidity: 70%   Direction: 350°N
Pressure: 30.2"   Gusts: NA
Location:  47.5741°N, 92.8546°W
Report Text: KHIB 261612Z AUTO 35011KT 4SM -SN OVC016 M09/M14 A3020 RMK AO2 P0000 T10941139
Loading
Personal Weather Stations






























Interactive Weather Map New forecast layout! Learn more

10-Day Weather Forecast

Advertisements
Track Severe Weather on mobile